Time;durP1;ratioP1;P1;durP2;ratioP2;P2;SDS_P1;SDS_P2;PMS_P1;PMS_P2;Temp;Humidity;BMP_temperature;BMP_pressure;BME280_temperature;BME280_humidity;BME280_pressure;Samples;Min_cycle;Max_cycle;Signal;HPM_P1;HPM_P2
2022/02/12 00:00:38;;;;;;;;;;;;;;;1.46;100.00;99349.16;1740434;82;21267;-68
2022/02/12 00:03:04;;;;;;;;;;;;;;;1.48;100.00;99350.25;1742539;82;20263;-68
2022/02/12 00:05:31;;;;;;;;;;;;;;;1.48;100.00;99350.25;1764075;81;21164;-68
2022/02/12 00:07:58;;;;;;;;;;;;;;;1.50;100.00;99346.75;1769067;81;20169;-68
2022/02/12 00:10:26;;;;;;;;;;;;;;;1.50;100.00;99354.33;1739932;82;20111;-68
2022/02/12 00:12:52;;;;;;;;;;;;;;;1.51;100.00;99345.67;1739695;82;20087;-68
2022/02/12 00:15:19;;;;;;;;;;;;;;;1.51;100.00;99338.37;1739723;82;20088;-68
2022/02/12 00:17:47;;;;;;;;;;;;;;;1.51;100.00;99341.08;1739652;82;20099;-68
2022/02/12 00:20:15;;;;;;;;;;;;;;;1.52;100.00;99337.30;1740011;82;20450;-68
2022/02/12 00:22:41;;;;;;;;;;;;;;;1.54;100.00;99337.03;1739792;82;20158;-68
2022/02/12 00:25:08;;;;;;;;;;;;;;;1.53;100.00;99333.52;1758641;81;20081;-68
2022/02/12 00:27:35;;;;;;;;;;;;;;;1.54;100.00;99330.27;1770254;81;20120;-67
2022/02/12 00:30:03;;;;;;;;;;;;;;;1.55;100.00;99331.36;1770576;81;21106;-67
2022/02/12 00:32:31;;;;;;;;;;;;;;;1.54;100.00;99320.27;1753696;81;20528;-67
2022/02/12 00:34:57;;;;;;;;;;;;;;;1.55;100.00;99336.77;1739624;82;20116;-67
2022/02/12 00:37:25;;;;;;;;;;;;;;;1.56;100.00;99337.05;1739218;82;20099;-67
2022/02/12 00:39:51;;;;;;;;;;;;;;;1.58;100.00;99332.73;1739895;82;20159;-68
2022/02/12 00:42:18;;;;;;;;;;;;;;;1.60;100.00;99330.04;1739960;82;21219;-68
2022/02/12 00:44:45;;;;;;;;;;;;;;;1.64;100.00;99329.80;1739784;82;20415;-68
2022/02/12 00:47:11;;;;;;;;;;;;;;;1.68;100.00;99334.14;1740029;82;20187;-67
2022/02/12 00:49:37;;;;;;;;;;;;;;;1.72;100.00;99335.25;1739695;82;20386;-67
2022/02/12 00:52:04;;;;;;;;;;;;;;;1.76;100.00;99334.97;1734785;82;20108;-67
2022/02/12 00:54:32;;;;;;;;;;;;;;;1.79;100.00;99329.03;1744633;81;21152;-67
2022/02/12 00:56:59;;;;;;;;;;;;;;;1.85;100.00;99341.51;1765076;81;20405;-68
2022/02/12 00:59:25;;;;;;;;;;;;;;;1.87;100.00;99329.87;1765048;81;20126;-67
2022/02/12 01:01:52;;;;;;;;;;;;;;;1.92;100.00;99331.80;1765017;81;20181;-68
2022/02/12 01:04:19;;;;;;;;;;;;;;;1.96;100.00;99335.60;1765343;81;20093;-68
2022/02/12 01:06:45;;;;;;;;;;;;;;;2.02;100.00;99331.02;1765344;81;21133;-69
2022/02/12 01:09:12;;;;;;;;;;;;;;;2.07;100.00;99328.34;1764679;81;20132;-69
2022/02/12 01:11:38;;;;;;;;;;;;;;;2.10;100.00;99320.50;1765268;81;20109;-68
2022/02/12 01:14:04;;;;;;;;;;;;;;;2.15;100.00;99320.52;1765183;81;20097;-69
2022/02/12 01:16:32;;;;;;;;;;;;;;;2.17;100.00;99317.00;1765211;81;20113;-69
2022/02/12 01:18:59;;;;;;;;;;;;;;;2.19;100.00;99316.73;1765307;81;21149;-69
2022/02/12 01:21:26;;;;;;;;;;;;;;;2.20;100.00;99319.17;1764593;81;20141;-69
2022/02/12 01:23:52;;;;;;;;;;;;;;;2.21;100.00;99317.28;1765102;81;20136;-69
2022/02/12 01:26:18;;;;;;;;;;;;;;;2.23;100.00;99310.52;1764745;81;20089;-68
2022/02/12 01:28:44;;;;;;;;;;;;;;;2.25;100.00;99308.90;1765244;81;20082;-69
2022/02/12 01:31:10;;;;;;;;;;;;;;;2.28;100.00;99307.83;1765129;81;21256;-69
2022/02/12 01:33:36;;;;;;;;;;;;;;;2.30;100.00;99310.27;1764987;81;20085;-70
2022/02/12 01:36:03;;;;;;;;;;;;;;;2.33;100.00;99302.39;1765166;81;20133;-69
2022/02/12 01:38:30;;;;;;;;;;;;;;;2.36;100.00;99302.39;1765134;81;20098;-69
2022/02/12 01:40:56;;;;;;;;;;;;;;;2.40;100.00;99306.20;1765568;81;20141;-69
2022/02/12 01:43:23;;;;;;;;;;;;;;;2.42;100.00;99293.20;1765290;81;21091;-69
2022/02/12 01:45:50;;;;;;;;;;;;;;;2.43;100.00;99308.91;1765120;81;20093;-69
2022/02/12 01:48:18;;;;;;;;;;;;;;;2.47;100.00;99308.65;1738161;81;20201;-68
2022/02/12 01:50:49;;;;;;;;;;;;;;;2.48;100.00;99299.44;1726068;82;20463;-68
2022/02/12 01:53:17;;;;;;;;;;;;;;;2.46;100.00;99298.89;1726814;83;20438;-69
2022/02/12 01:55:44;;;;;;;;;;;;;;;2.46;100.00;99299.70;1726575;83;21090;-69
2022/02/12 01:58:10;;;;;;;;;;;;;;;2.46;100.00;99312.44;1726790;82;20435;-69
2022/02/12 02:00:37;;;;;;;;;;;;;;;2.45;100.00;99309.45;1731783;83;20112;-69
2022/02/12 02:03:04;;;;;;;;;;;;;;;2.45;100.00;99308.10;1731485;83;20124;-70
2022/02/12 02:05:32;;;;;;;;;;;;;;;2.44;100.00;99307.29;1731423;83;20151;-70
2022/02/12 02:07:58;;;;;;;;;;;;;;;2.44;100.00;99300.52;1760430;81;20754;-70
2022/02/12 02:10:24;;;;;;;;;;;;;;;2.46;100.00;99305.67;1771072;81;20069;-70
2022/02/12 02:12:51;;;;;;;;;;;;;;;2.45;100.00;99304.85;1770770;81;20081;-70
2022/02/12 02:15:17;;;;;;;;;;;;;;;2.44;100.00;99303.22;1770861;80;20085;-70
2022/02/12 02:17:43;;;;;;;;;;;;;;;2.45;100.00;99300.79;1770934;80;20428;-69
2022/02/12 02:20:10;;;;;;;;;;;;;;;2.44;100.00;99304.58;1770805;80;21039;-70
2022/02/12 02:22:52;;;;;;;;;;;;;;;2.43;100.00;99305.66;1770870;80;20089;-69
2022/02/12 02:25:19;;;;;;;;;;;;;;;2.43;100.00;99311.62;1771169;80;20138;-69
2022/02/12 02:27:45;;;;;;;;;;;;;;;2.42;100.00;99308.64;1771117;81;20782;-69
2022/02/12 02:30:17;;;;;;;;;;;;;;;2.41;100.00;99311.08;1771299;81;20120;-69
2022/02/12 02:32:43;;;;;;;;;;;;;;;2.41;100.00;99311.89;1770839;81;21146;-69
2022/02/12 02:35:11;;;;;;;;;;;;;;;2.43;100.00;99319.21;1771066;81;20097;-69
2022/02/12 02:37:38;;;;;;;;;;;;;;;2.45;100.00;99323.00;1770914;80;20436;-69
2022/02/12 02:40:14;;;;;;;;;;;;;;;2.44;100.00;99321.38;1770920;81;20101;-70
2022/02/12 02:42:44;;;;;;;;;;;;;;;2.43;100.00;99324.63;1770506;81;20145;-67
2022/02/12 02:45:11;;;;;;;;;;;;;;;2.43;100.00;99328.69;1770961;80;21113;-67
2022/02/12 02:47:42;;;;;;;;;;;;;;;2.41;100.00;99337.63;1771034;81;20393;-67
2022/02/12 02:58:24;;;;;;;;;;;;;;;2.29;100.00;99361.46;1764378;81;23354;-66
2022/02/12 03:00:50;;;;;;;;;;;;;;;2.20;100.00;99377.95;1765387;81;20093;-66
2022/02/12 03:03:17;;;;;;;;;;;;;;;2.13;100.00;99373.31;1765429;81;20126;-67
2022/02/12 03:05:44;;;;;;;;;;;;;;;2.03;100.00;99379.49;1733525;81;20139;-68
2022/02/12 03:08:10;;;;;;;;;;;;;;;1.91;100.00;99381.06;1728810;83;20111;-69
2022/02/12 03:10:37;;;;;;;;;;;;;;;1.79;100.00;99395.34;1728879;82;20467;-68
2022/02/12 03:13:04;;;;;;;;;;;;;;;1.67;100.00;99401.52;1708354;83;20215;-68
2022/02/12 03:15:31;;;;;;;;;;;;;;;1.57;100.00;99411.73;1728762;82;20112;-68
2022/02/12 03:17:57;;;;;;;;;;;;;;;1.45;100.00;99423.27;1728839;83;20140;-68
2022/02/12 03:20:23;;;;;;;;;;;;;;;1.30;100.00;99436.67;1734887;81;20430;-68
2022/02/12 03:22:49;;;;;;;;;;;;;;;1.10;100.00;99456.80;1735018;82;21155;-68
2022/02/12 03:25:16;;;;;;;;;;;;;;;0.89;100.00;99472.81;1765141;81;20074;-68
2022/02/12 03:27:42;;;;;;;;;;;;;;;0.73;100.00;99475.59;1765385;80;20097;-68
2022/02/12 03:30:09;;;;;;;;;;;;;;;0.61;100.00;99487.34;1744336;81;20086;-68
2022/02/12 03:32:36;;;;;;;;;;;;;;;0.53;100.00;99483.77;1765407;81;20081;-68
2022/02/12 03:35:03;;;;;;;;;;;;;;;0.44;100.00;99496.08;1765337;81;21141;-68
2022/02/12 03:37:30;;;;;;;;;;;;;;;0.37;100.00;99490.05;1765283;81;20168;-68
2022/02/12 03:39:56;;;;;;;;;;;;;;;0.32;100.00;99523.73;1730461;81;20100;-68
2022/02/12 03:42:23;;;;;;;;;;;;;;;0.30;100.00;99532.61;1728725;83;20144;-68
2022/02/12 03:44:49;;;;;;;;;;;;;;;0.25;100.00;99534.70;1731063;81;20223;-68
2022/02/12 03:47:15;;;;;;;;;;;;;;;0.21;100.00;99544.37;1757038;81;21777;-68
2022/02/12 03:49:42;;;;;;;;;;;;;;;0.18;100.00;99554.84;1735093;82;20450;-70
2022/02/12 03:52:08;;;;;;;;;;;;;;;0.17;100.00;99568.88;1746491;81;20145;-66
2022/02/12 03:54:34;;;;;;;;;;;;;;;0.16;100.00;99575.34;1756483;81;20623;-67
2022/02/12 03:57:00;;;;;;;;;;;;;;;0.17;100.00;99593.70;1746191;81;20435;-67
2022/02/12 03:59:26;;;;;;;;;;;;;;;0.17;100.00;99577.50;1734805;82;20446;-66
2022/02/12 04:01:52;;;;;;;;;;;;;;;0.16;100.00;99596.94;1734585;82;20165;-66
2022/02/12 04:04:19;;;;;;;;;;;;;;;0.16;100.00;99614.48;1763944;81;20089;-67
2022/02/12 04:06:45;;;;;;;;;;;;;;;0.14;100.00;99615.80;1762473;80;20117;-66
2022/02/12 04:09:11;;;;;;;;;;;;;;;0.16;100.00;99626.63;1763699;81;20177;-67
2022/02/12 04:11:37;;;;;;;;;;;;;;;0.18;100.00;99631.25;1764571;81;21958;-66
2022/02/12 04:14:04;;;;;;;;;;;;;;;0.19;100.00;99646.39;1764527;81;20106;-66
2022/02/12 04:16:30;;;;;;;;;;;;;;;0.18;100.00;99641.23;1765174;81;20116;-66
2022/02/12 04:18:56;;;;;;;;;;;;;;;0.18;100.00;99653.38;1764925;81;20117;-66
2022/02/12 04:21:22;;;;;;;;;;;;;;;0.17;100.00;99655.27;1764976;81;20133;-66
2022/02/12 04:23:48;;;;;;;;;;;;;;;0.16;100.00;99657.67;1765149;81;21129;-66
2022/02/12 04:26:14;;;;;;;;;;;;;;;0.15;100.00;99677.64;1765149;81;20432;-66
2022/02/12 04:28:41;;;;;;;;;;;;;;;0.16;100.00;99681.97;1757238;81;20143;-66
2022/02/12 04:31:07;;;;;;;;;;;;;;;0.19;100.00;99685.53;1756295;81;20595;-67
2022/02/12 04:33:34;;;;;;;;;;;;;;;0.19;100.00;99688.77;1765168;80;20085;-66
2022/02/12 04:36:00;;;;;;;;;;;;;;;0.18;100.00;99697.93;1764900;80;21783;-66
2022/02/12 04:38:27;;;;;;;;;;;;;;;0.20;100.00;99707.42;1765255;81;20081;-66
2022/02/12 04:40:53;;;;;;;;;;;;;;;0.21;100.00;99705.55;1765321;80;20097;-66
2022/02/12 04:43:19;;;;;;;;;;;;;;;0.19;100.00;99721.16;1765176;81;20109;-67
2022/02/12 04:45:45;;;;;;;;;;;;;;;0.16;100.00;99721.66;1765842;80;20155;-66
2022/02/12 04:48:12;;;;;;;;;;;;;;;0.14;100.00;99727.83;1765812;80;21103;-67
2022/02/12 04:50:38;;;;;;;;;;;;;;;0.10;100.00;99732.07;1765210;80;20116;-66
2022/02/12 04:53:04;;;;;;;;;;;;;;;0.03;100.00;99739.50;1769815;80;20073;-66
2022/02/12 04:55:32;;;;;;;;;;;;;;;-0.02;100.00;99749.17;1770288;81;21993;-66
2022/02/12 04:57:58;;;;;;;;;;;;;;;-0.01;100.00;99760.25;1764508;81;20083;-66
2022/02/12 05:00:25;;;;;;;;;;;;;;;-0.02;100.00;99758.62;1757993;81;21787;-70
2022/02/12 05:02:51;;;;;;;;;;;;;;;-0.03;100.00;99765.08;1744133;81;20128;-75
2022/02/12 05:05:18;;;;;;;;;;;;;;;-0.05;100.00;99774.47;1754771;81;20083;-73
2022/02/12 05:07:44;;;;;;;;;;;;;;;-0.03;100.00;99783.97;1752569;81;20732;-72
2022/02/12 05:10:10;;;;;;;;;;;;;;;-0.02;100.00;99792.36;1755557;81;20136;-69
2022/02/12 05:12:37;;;;;;;;;;;;;;;-0.01;100.00;99790.48;1706416;83;21140;-68
2022/02/12 05:15:07;;;;;;;;;;;;;;;-0.02;100.00;99788.30;1754864;81;20108;-70
2022/02/12 05:17:34;;;;;;;;;;;;;;;0.02;100.00;99793.19;1755057;81;21163;-69
2022/02/12 05:20:00;;;;;;;;;;;;;;;0.02;100.00;99799.94;1756555;81;20770;-65
2022/02/12 05:22:26;;;;;;;;;;;;;;;0.00;100.00;99793.46;1749994;81;20418;-68
2022/02/12 05:24:53;;;;;;;;;;;;;;;0.02;100.00;99801.29;1740047;82;21121;-66
2022/02/12 05:27:19;;;;;;;;;;;;;;;0.03;100.00;99813.73;1739760;82;20432;-75
2022/02/12 05:29:45;;;;;;;;;;;;;;;0.02;100.00;99821.53;1739552;82;20103;-73
2022/02/12 05:32:11;;;;;;;;;;;;;;;-0.01;100.00;99820.98;1739931;82;20527;-73
2022/02/12 05:34:37;;;;;;;;;;;;;;;0.00;100.00;99825.30;1740586;82;20115;-76
2022/02/12 05:37:04;;;;;;;;;;;;;;;0.03;100.00;99825.87;1748700;81;21512;-69
2022/02/12 05:39:30;;;;;;;;;;;;;;;0.03;100.00;99833.97;1712882;82;20108;-67
2022/02/12 05:41:57;;;;;;;;;;;;;;;0.06;100.00;99844.29;1738942;82;20429;-68
2022/02/12 05:44:23;;;;;;;;;;;;;;;0.05;100.00;99848.87;1739564;82;20096;-72
2022/02/12 05:46:51;;;;;;;;;;;;;;;0.03;100.00;99858.27;1743901;81;20457;-67
2022/02/12 05:49:18;;;;;;;;;;;;;;;0.00;100.00;99863.08;1756233;81;23349;-67
2022/02/12 05:51:44;;;;;;;;;;;;;;;0.04;100.00;99870.70;1752183;81;20093;-69
2022/02/12 05:54:11;;;;;;;;;;;;;;;0.06;100.00;99868.58;1751058;81;20148;-70
2022/02/12 05:56:39;;;;;;;;;;;;;;;0.06;100.00;99882.08;1753459;81;20656;-70
2022/02/12 05:59:08;;;;;;;;;;;;;;;0.03;100.00;99880.67;1752598;81;20077;-69
2022/02/12 06:01:33;;;;;;;;;;;;;;;0.00;100.00;99886.02;1739300;81;21954;-69
2022/02/12 06:03:59;;;;;;;;;;;;;;;-0.01;100.00;99887.11;1739340;82;20473;-71
2022/02/12 06:06:25;;;;;;;;;;;;;;;0.01;100.00;99894.94;1747389;81;20097;-72
2022/02/12 06:08:53;;;;;;;;;;;;;;;0.09;100.00;99899.15;1755576;81;20163;-68
2022/02/12 06:11:21;;;;;;;;;;;;;;;0.10;100.00;99900.26;1739546;82;20446;-68
2022/02/12 06:13:51;;;;;;;;;;;;;;;0.08;100.00;99900.20;1720099;83;21058;-68
2022/02/12 06:16:16;;;;;;;;;;;;;;;0.06;100.00;99908.55;1709499;83;20745;-68
2022/02/12 06:18:42;;;;;;;;;;;;;;;0.06;100.00;99917.17;1738955;82;20147;-68
2022/02/12 06:21:09;;;;;;;;;;;;;;;0.02;100.00;99916.83;1739856;82;20123;-68
2022/02/12 06:23:36;;;;;;;;;;;;;;;-0.01;100.00;99925.42;1739989;82;20442;-67
2022/02/12 06:26:03;;;;;;;;;;;;;;;-0.04;100.00;99926.72;1739790;82;21866;-68
2022/02/12 06:28:31;;;;;;;;;;;;;;;-0.06;100.00;99934.23;1739340;82;20071;-68
2022/02/12 06:30:57;;;;;;;;;;;;;;;-0.06;100.00;99942.86;1739631;82;20099;-67
2022/02/12 06:33:23;;;;;;;;;;;;;;;-0.03;100.00;99948.61;1742635;81;20093;-69
2022/02/12 06:35:50;;;;;;;;;;;;;;;0.00;100.00;99950.80;1754461;81;20156;-69
2022/02/12 06:38:16;;;;;;;;;;;;;;;0.03;100.00;99963.53;1739795;82;21096;-69
2022/02/12 06:40:42;;;;;;;;;;;;;;;0.05;100.00;99964.94;1739679;82;20139;-69
2022/02/12 06:43:08;;;;;;;;;;;;;;;0.09;100.00;99967.98;1739830;82;20144;-68
2022/02/12 06:45:39;;;;;;;;;;;;;;;0.14;100.00;99960.00;1743863;81;20095;-69
2022/02/12 06:48:05;;;;;;;;;;;;;;;0.21;100.00;99982.30;1752859;81;20091;-68
2022/02/12 06:50:33;;;;;;;;;;;;;;;0.27;100.00;99978.64;1739801;82;20438;-68
2022/02/12 06:52:59;;;;;;;;;;;;;;;0.31;100.00;99986.56;1739070;81;20099;-68
2022/02/12 06:55:26;;;;;;;;;;;;;;;0.29;100.00;99990.03;1739651;82;20087;-69
2022/02/12 06:57:52;;;;;;;;;;;;;;;0.28;100.00;99999.19;1739658;82;20119;-69
2022/02/12 07:00:19;;;;;;;;;;;;;;;0.28;100.00;100002.70;1739787;82;20108;-65
2022/02/12 07:02:50;;;;;;;;;;;;;;;0.30;100.00;100006.52;1739634;82;21763;-66
2022/02/12 07:05:15;;;;;;;;;;;;;;;0.26;100.00;100017.50;1739777;82;20095;-66
2022/02/12 07:07:45;;;;;;;;;;;;;;;0.26;100.00;100016.16;1739578;82;20087;-66
2022/02/12 07:10:12;;;;;;;;;;;;;;;0.26;100.00;100033.70;1737417;82;20119;-65
2022/02/12 07:12:40;;;;;;;;;;;;;;;0.23;100.00;100033.66;1739836;82;20084;-65
2022/02/12 07:15:08;;;;;;;;;;;;;;;0.23;100.00;100036.35;1739248;82;21144;-65
2022/02/12 07:17:39;;;;;;;;;;;;;;;0.30;100.00;100039.75;1739189;82;20080;-66
2022/02/12 07:20:04;;;;;;;;;;;;;;;0.36;100.00;100039.86;1739118;82;20119;-65
2022/02/12 07:22:32;;;;;;;;;;;;;;;0.40;100.00;100047.78;1738321;82;20122;-65
2022/02/12 07:24:58;;;;;;;;;;;;;;;0.46;100.00;100057.11;1739755;82;20095;-65
2022/02/12 07:27:24;;;;;;;;;;;;;;;0.52;100.00;100065.62;1739441;82;21147;-65
2022/02/12 07:29:50;;;;;;;;;;;;;;;0.54;100.00;100074.31;1739236;82;20147;-64
2022/02/12 07:32:16;;;;;;;;;;;;;;;0.53;100.00;100080.77;1739897;82;20096;-65
2022/02/12 07:34:43;;;;;;;;;;;;;;;0.52;100.00;100088.59;1739199;82;20131;-65
2022/02/12 07:37:09;;;;;;;;;;;;;;;0.55;100.00;100092.69;1739667;82;20468;-65
2022/02/12 07:39:38;;;;;;;;;;;;;;;0.53;100.00;100096.16;1705552;82;40296;-65
2022/02/12 07:42:05;;;;;;;;;;;;;;;0.50;100.00;100088.53;1705707;81;20087;-64
2022/02/12 07:44:31;;;;;;;;;;;;;;;0.53;100.00;100098.86;1762776;81;20434;-65
2022/02/12 07:46:58;;;;;;;;;;;;;;;0.59;100.00;100104.11;1768848;81;20080;-66
2022/02/12 07:49:24;;;;;;;;;;;;;;;0.61;100.00;100108.75;1738720;82;20115;-65
2022/02/12 07:51:51;;;;;;;;;;;;;;;0.61;100.00;100116.86;1737049;82;22164;-66
2022/02/12 07:54:18;;;;;;;;;;;;;;;0.62;100.00;100117.15;1704415;82;20521;-65
2022/02/12 07:56:45;;;;;;;;;;;;;;;0.62;100.00;100117.15;1764743;81;20081;-66
2022/02/12 07:59:11;;;;;;;;;;;;;;;0.65;100.00;100129.36;1758662;81;20197;-65
2022/02/12 08:01:38;;;;;;;;;;;;;;;0.66;100.00;100125.60;1794218;79;20115;-65
2022/02/12 08:04:04;;;;;;;;;;;;;;;0.73;100.00;100138.99;1801333;79;21151;-66
2022/02/12 08:09:15;;;;;;;;;;;;;;;0.77;100.00;100136.93;1748945;81;20134;-66
2022/02/12 08:11:48;;;;;;;;;;;;;;;0.77;100.00;100139.63;1769683;81;20193;-66
2022/02/12 08:14:10;;;;;;;;;;;;;;;0.83;100.00;100148.67;1768740;81;20136;-66
2022/02/12 08:16:36;;;;;;;;;;;;;;;0.90;100.00;100150.19;1770005;81;21069;-66
2022/02/12 08:19:03;;;;;;;;;;;;;;;0.96;100.00;100149.77;1769272;81;20160;-66
2022/02/12 08:21:31;;;;;;;;;;;;;;;1.03;100.00;100154.52;1769962;81;20617;-66
2022/02/12 08:23:57;;;;;;;;;;;;;;;1.09;100.00;100153.57;1769210;81;20137;-66
2022/02/12 08:26:23;;;;;;;;;;;;;;;1.19;100.00;100155.09;1770145;81;20204;-66
2022/02/12 08:28:49;;;;;;;;;;;;;;;1.30;100.00;100162.89;1769263;81;21982;-66
2022/02/12 08:31:16;;;;;;;;;;;;;;;1.44;100.00;100170.20;1769459;81;20097;-67
2022/02/12 08:33:42;;;;;;;;;;;;;;;1.57;100.00;100173.98;1769690;81;20156;-65
2022/02/12 08:36:09;;;;;;;;;;;;;;;1.68;100.00;100177.70;1768952;81;20192;-66
2022/02/12 08:38:36;;;;;;;;;;;;;;;1.70;100.00;100186.41;1769804;81;20153;-66
2022/02/12 08:41:03;;;;;;;;;;;;;;;1.65;100.00;100193.36;1769849;81;21159;-65
2022/02/12 08:43:29;;;;;;;;;;;;;;;1.57;100.00;100205.09;1769862;81;20215;-66
2022/02/12 08:45:55;;;;;;;;;;;;;;;1.50;100.00;100212.53;1769851;81;20439;-66
2022/02/12 08:48:22;;;;;;;;;;;;;;;1.44;100.00;100220.25;1769495;81;20177;-66
2022/02/12 08:50:48;;;;;;;;;;;;;;;1.36;100.00;100221.45;1769962;81;20164;-66
2022/02/12 08:53:16;;;;;;;;;;;;;;;1.30;100.00;100214.28;1769588;81;21781;-65
2022/02/12 08:55:43;;;;;;;;;;;;;;;1.25;100.00;100231.23;1768641;81;20157;-65
2022/02/12 08:58:09;;;;;;;;;;;;;;;1.22;100.00;100231.70;1769532;81;20148;-66
2022/02/12 09:00:35;;;;;;;;;;;;;;;1.27;100.00;100243.16;1769504;81;20137;-66
2022/02/12 09:03:01;;;;;;;;;;;;;;;1.29;100.00;100243.22;1769386;81;20098;-66
2022/02/12 09:05:28;;;;;;;;;;;;;;;1.32;100.00;100245.45;1769760;81;21099;-66
2022/02/12 09:07:55;;;;;;;;;;;;;;;1.41;100.00;100242.38;1768062;81;20109;-65
2022/02/12 09:10:23;;;;;;;;;;;;;;;1.81;100.00;100251.83;1769360;81;20112;-66
2022/02/12 09:12:50;;;;;;;;;;;;;;;2.23;100.00;100252.35;1769454;81;20165;-65
2022/02/12 09:15:18;;;;;;;;;;;;;;;2.50;100.00;100249.28;1769719;79;20101;-65
2022/02/12 09:17:44;;;;;;;;;;;;;;;2.69;100.00;100251.75;1735497;81;21010;-65
2022/02/12 09:20:11;;;;;;;;;;;;;;;2.74;98.64;100265.39;1769897;81;20957;-65
2022/02/12 09:22:38;;;;;;;;;;;;;;;2.64;98.55;100268.75;1769581;81;20105;-65
2022/02/12 09:25:06;;;;;;;;;;;;;;;2.56;98.12;100284.89;1770047;81;20112;-66
2022/02/12 09:27:35;;;;;;;;;;;;;;;2.44;96.59;100267.87;1769731;81;20081;-66
2022/02/12 09:30:04;;;;;;;;;;;;;;;2.32;97.47;100287.44;1769590;81;21160;-66
2022/02/12 09:32:32;;;;;;;;;;;;;;;2.27;97.97;100290.91;1768651;81;20120;-65
2022/02/12 09:34:58;;;;;;;;;;;;;;;2.23;97.90;100295.70;1768909;81;20093;-65
2022/02/12 09:37:25;;;;;;;;;;;;;;;2.19;97.22;100306.20;1769464;81;20192;-65
2022/02/12 09:39:51;;;;;;;;;;;;;;;2.17;97.19;100312.38;1769971;81;20157;-66
2022/02/12 09:42:18;;;;;;;;;;;;;;;2.19;97.92;100308.91;1768360;81;21133;-65
2022/02/12 09:44:44;;;;;;;;;;;;;;;2.29;97.92;100305.56;1769417;81;20149;-66
2022/02/12 09:47:26;;;;;;;;;;;;;;;2.35;95.85;100311.87;1769721;81;20105;-65
2022/02/12 09:49:55;;;;;;;;;;;;;;;2.35;95.67;100314.58;1762370;81;20109;-66
2022/02/12 09:52:22;;;;;;;;;;;;;;;2.31;94.50;100322.40;1730368;83;20180;-67
2022/02/12 09:54:48;;;;;;;;;;;;;;;2.29;94.85;100316.40;1737563;81;21093;-69
2022/02/12 09:57:16;;;;;;;;;;;;;;;2.26;93.96;100320.42;1735544;81;20159;-69
2022/02/12 09:59:44;;;;;;;;;;;;;;;2.18;91.29;100328.11;1749994;80;20199;-69
2022/02/12 10:02:18;;;;;;;;;;;;;;;2.10;91.86;100327.14;1745374;80;20675;-73
2022/02/12 10:04:44;;;;;;;;;;;;;;;2.03;91.56;100332.69;1755305;80;20105;-70
2022/02/12 10:07:22;;;;;;;;;;;;;;;1.96;89.20;100336.89;1747106;80;21518;-69
2022/02/12 10:10:09;;;;;;;;;;;;;;;1.91;89.14;100336.78;1744338;81;20175;-71
2022/02/12 10:12:36;;;;;;;;;;;;;;;1.93;90.25;100343.31;1745644;81;20153;-68
2022/02/12 10:15:02;;;;;;;;;;;;;;;2.01;89.70;100343.47;1747893;81;20986;-68
2022/02/12 10:17:28;;;;;;;;;;;;;;;2.09;87.89;100347.98;1747960;81;20424;-68
2022/02/12 10:19:55;;;;;;;;;;;;;;;2.18;88.83;100345.72;1750014;81;21216;-68
2022/02/12 10:22:22;;;;;;;;;;;;;;;2.26;88.59;100356.17;1747626;81;20119;-68
2022/02/12 10:24:53;;;;;;;;;;;;;;;2.27;87.61;100361.88;1750998;81;20172;-69
2022/02/12 10:27:21;;;;;;;;;;;;;;;2.22;87.73;100367.20;1749598;81;20204;-69
2022/02/12 10:29:48;;;;;;;;;;;;;;;2.20;89.06;100363.91;1749045;81;20202;-69
2022/02/12 10:32:16;;;;;;;;;;;;;;;2.27;89.52;100368.66;1747180;81;21068;-68
2022/02/12 10:34:43;;;;;;;;;;;;;;;2.33;87.87;100370.37;1749049;81;20167;-69
2022/02/12 10:37:14;;;;;;;;;;;;;;;2.35;87.29;100374.19;1749271;81;20088;-71
2022/02/12 10:39:52;;;;;;;;;;;;;;;2.35;86.92;100375.55;1702561;81;20201;-69
2022/02/12 10:42:18;;;;;;;;;;;;;;;2.34;87.37;100384.20;1748294;81;20176;-69
2022/02/12 10:44:45;;;;;;;;;;;;;;;2.38;87.34;100372.35;1747453;81;21152;-67
2022/02/12 10:47:15;;;;;;;;;;;;;;;2.40;86.31;100387.30;1747082;81;20451;-66
2022/02/12 10:49:42;;;;;;;;;;;;;;;2.42;88.24;100397.38;1747896;81;20212;-66
2022/02/12 10:52:09;;;;;;;;;;;;;;;2.59;87.73;100406.91;1748050;81;20177;-67
2022/02/12 10:54:49;;;;;;;;;;;;;;;2.64;86.29;100402.41;1754320;81;20197;-69
2022/02/12 10:57:17;;;;;;;;;;;;;;;2.81;86.82;100408.41;1755185;81;21144;-69
2022/02/12 10:59:44;;;;;;;;;;;;;;;3.05;87.46;100407.18;1758517;79;20168;-70
2022/02/12 11:02:15;;;;;;;;;;;;;;;3.19;85.00;100408.51;1736689;81;20482;-65
2022/02/12 11:04:42;;;;;;;;;;;;;;;3.20;85.09;100403.91;1768554;81;20156;-68
2022/02/12 11:07:12;;;;;;;;;;;;;;;3.13;83.71;100408.13;1768054;81;20138;-70
2022/02/12 11:09:40;;;;;;;;;;;;;;;2.96;82.94;100410.00;1770058;81;21257;-70
2022/02/12 11:12:07;;;;;;;;;;;;;;;2.78;83.75;100411.61;1769149;81;20117;-73
2022/02/12 11:14:35;;;;;;;;;;;;;;;2.67;85.11;100428.75;1769389;80;20173;-72
2022/02/12 11:17:05;;;;;;;;;;;;;;;2.61;84.54;100414.27;1768737;79;20146;-72
2022/02/12 11:19:32;;;;;;;;;;;;;;;2.52;84.85;100429.27;1739542;81;20169;-70
2022/02/12 11:21:59;;;;;;;;;;;;;;;2.44;85.25;100432.36;1769798;80;22102;-71
2022/02/12 11:24:36;;;;;;;;;;;;;;;2.37;86.20;100436.56;1769547;80;20137;-80
2022/02/12 11:27:09;;;;;;;;;;;;;;;2.19;88.38;100432.16;1746563;81;20180;-74
2022/02/12 11:29:40;;;;;;;;;;;;;;;1.95;89.98;100428.67;1759053;81;20152;-78
2022/02/12 11:32:09;;;;;;;;;;;;;;;1.85;90.88;100435.21;1741554;81;20148;-78
2022/02/12 11:34:36;;;;;;;;;;;;;;;1.91;91.83;100442.39;1697524;84;21165;-77
2022/02/12 11:37:11;;;;;;;;;;;;;;;2.08;93.95;100445.73;1708340;83;20107;-74
2022/02/12 11:39:37;;;;;;;;;;;;;;;2.36;93.33;100449.00;1702609;83;20126;-77
2022/02/12 11:42:06;;;;;;;;;;;;;;;2.88;90.29;100439.73;1701092;83;20825;-74
2022/02/12 11:44:44;;;;;;;;;;;;;;;3.39;87.53;100445.20;1704533;82;20144;-72
2022/02/12 11:47:11;;;;;;;;;;;;;;;3.77;84.44;100452.02;1731093;82;21963;-70
2022/02/12 11:49:40;;;;;;;;;;;;;;;4.04;78.80;100444.53;1730191;82;20204;-71
2022/02/12 11:52:13;;;;;;;;;;;;;;;4.18;79.94;100447.13;1768462;81;20141;-75
2022/02/12 11:54:56;;;;;;;;;;;;;;;4.44;77.19;100460.52;1769242;81;20150;-72
2022/02/12 11:57:28;;;;;;;;;;;;;;;4.40;75.87;100467.00;1750156;81;20069;-73
2022/02/12 12:00:05;;;;;;;;;;;;;;;4.11;75.14;100456.83;1738677;82;21168;-74
2022/02/12 12:02:45;;;;;;;;;;;;;;;3.73;76.71;100471.77;1739092;82;20111;-73
2022/02/12 12:05:17;;;;;;;;;;;;;;;3.35;78.83;100479.33;1739146;82;20461;-74
2022/02/12 12:08:10;;;;;;;;;;;;;;;3.08;80.18;100481.30;1739240;82;20421;-73
2022/02/12 12:10:53;;;;;;;;;;;;;;;2.86;80.38;100483.08;1739122;82;20423;-72
2022/02/12 12:13:22;;;;;;;;;;;;;;;2.64;81.84;100497.83;1737412;82;21150;-71
2022/02/12 12:15:54;;;;;;;;;;;;;;;2.43;83.03;100496.58;1739942;81;20131;-74
2022/02/12 12:18:21;;;;;;;;;;;;;;;2.29;85.00;100496.58;1739804;82;20603;-75
2022/02/12 12:20:49;;;;;;;;;;;;;;;2.21;85.55;100514.55;1748729;81;20124;-73
2022/02/12 12:23:17;;;;;;;;;;;;;;;2.08;84.41;100519.68;1730551;82;20435;-72
2022/02/12 12:26:02;;;;;;;;;;;;;;;1.97;84.21;100514.56;1712468;82;21079;-72
2022/02/12 12:28:40;;;;;;;;;;;;;;;1.92;84.99;100521.74;1711232;82;20490;-73
2022/02/12 12:31:06;;;;;;;;;;;;;;;1.90;85.65;100523.86;1729413;82;20099;-77
2022/02/12 12:33:39;;;;;;;;;;;;;;;1.85;86.47;100523.20;1732102;81;20358;-75
2022/02/12 12:36:14;;;;;;;;;;;;;;;2.30;88.84;100520.73;1739565;81;20195;-75
2022/02/12 12:38:45;;;;;;;;;;;;;;;3.39;90.29;100518.48;1749087;81;21112;-73
2022/02/12 12:41:31;;;;;;;;;;;;;;;4.57;82.94;100521.33;1750265;81;20144;-72
2022/02/12 12:44:16;;;;;;;;;;;;;;;5.00;79.84;100528.63;1769968;81;20121;-75
2022/02/12 12:46:45;;;;;;;;;;;;;;;4.72;74.32;100529.66;1769725;81;20795;-73
2022/02/12 12:49:42;;;;;;;;;;;;;;;4.21;74.29;100533.60;1764861;79;20280;-75
2022/02/12 12:52:17;;;;;;;;;;;;;;;3.86;75.79;100527.94;1794630;80;21035;-77
2022/02/12 12:54:43;;;;;;;;;;;;;;;3.58;76.55;100534.27;1791526;78;20175;-75
2022/02/12 12:57:13;;;;;;;;;;;;;;;3.40;77.71;100535.87;1782376;79;20435;-70
2022/02/12 12:59:50;;;;;;;;;;;;;;;3.25;77.87;100539.67;1788425;79;20080;-80